createdAt,value
2023-01-26T00:00:30.279Z,0
2023-01-26T00:01:31.768Z,0
2023-01-26T00:02:32.564Z,0
2023-01-26T00:03:34.087Z,0
2023-01-26T00:04:33.148Z,0
2023-01-26T00:05:33.537Z,0
2023-01-26T00:06:33.459Z,0
2023-01-26T00:07:34.373Z,0
2023-01-26T00:08:34.768Z,0
2023-01-26T00:09:36.264Z,0
2023-01-26T00:10:36.462Z,0
2023-01-26T00:11:36.673Z,0
2023-01-26T00:12:37.593Z,0
2023-01-26T00:13:37.526Z,0
2023-01-26T00:14:38.723Z,0
2023-01-26T00:15:39.734Z,0
2023-01-26T00:16:41.014Z,0
2023-01-26T00:17:41.554Z,0
2023-01-26T00:18:41.176Z,0
2023-01-26T00:19:42.456Z,0
2023-01-26T00:20:43.405Z,0
2023-01-26T00:21:43.403Z,0
2023-01-26T00:22:44.341Z,0
2023-01-26T00:23:45.293Z,0
2023-01-26T00:24:45.807Z,0
2023-01-26T00:25:45.829Z,0
2023-01-26T00:26:46.457Z,0
2023-01-26T00:27:47.639Z,0
2023-01-26T00:28:47.573Z,0
2023-01-26T00:29:48.203Z,0
2023-01-26T00:30:49.672Z,0
2023-01-26T00:31:49.949Z,0
2023-01-26T00:32:50.514Z,0
2023-01-26T00:33:50.735Z,0
2023-01-26T00:34:51.257Z,0
2023-01-26T00:35:51.577Z,0
2023-01-26T00:36:51.650Z,0
2023-01-26T00:37:52.862Z,0
2023-01-26T00:38:52.810Z,0
2023-01-26T00:39:54.303Z,0
2023-01-26T00:40:54.275Z,0
2023-01-26T00:41:54.486Z,0
2023-01-26T00:42:54.428Z,0
2023-01-26T00:43:55.625Z,0
2023-01-26T00:44:56.544Z,0
2023-01-26T00:45:56.583Z,0
2023-01-26T00:46:58.144Z,0
2023-01-26T00:47:58.709Z,0
2023-01-26T00:48:58.666Z,0
2023-01-26T00:49:59.175Z,0
2023-01-26T00:50:59.128Z,0
2023-01-26T00:52:00.131Z,0
2023-01-26T00:53:00.098Z,0
2023-01-26T00:54:01.053Z,0
2023-01-26T00:55:02.307Z,0
2023-01-26T00:56:03.391Z,0
2023-01-26T00:57:02.732Z,0
2023-01-26T00:58:03.666Z,0
2023-01-26T00:59:04.564Z,0
2023-01-26T01:00:05.201Z,0
2023-01-26T01:01:06.547Z,0
2023-01-26T01:02:06.688Z,0
2023-01-26T01:03:07.301Z,0
2023-01-26T01:04:06.946Z,0
2023-01-26T01:05:07.880Z,0
2023-01-26T01:06:08.349Z,0
2023-01-26T01:07:09.556Z,0
2023-01-26T01:08:09.200Z,0
2023-01-26T01:09:10.433Z,0
2023-01-26T01:10:10.908Z,0
2023-01-26T01:11:10.693Z,0
2023-01-26T01:12:11.403Z,0
2023-01-26T01:13:12.318Z,0
2023-01-26T01:14:12.681Z,0
2023-01-26T01:15:14.164Z,0
2023-01-26T01:16:14.830Z,0
2023-01-26T01:17:15.053Z,0
2023-01-26T01:18:15.596Z,0
2023-01-26T01:19:15.017Z,0
2023-01-26T01:20:16.817Z,0
2023-01-26T01:21:17.044Z,0
2023-01-26T01:22:17.300Z,0
2023-01-26T01:23:17.940Z,0
2023-01-26T01:24:18.845Z,0
2023-01-26T01:25:18.801Z,0
2023-01-26T01:26:19.546Z,0
2023-01-26T01:27:20.760Z,0
2023-01-26T01:28:21.004Z,0
2023-01-26T01:29:21.488Z,0
2023-01-26T01:30:22.444Z,0
2023-01-26T01:31:22.814Z,0
2023-01-26T01:32:23.156Z,0
2023-01-26T01:33:23.420Z,0
2023-01-26T01:34:23.908Z,0
2023-01-26T01:35:24.161Z,0
2023-01-26T01:36:24.233Z,0
2023-01-26T01:37:24.627Z,0
2023-01-26T01:38:25.544Z,0
2023-01-26T01:39:25.903Z,0
2023-01-26T01:40:27.492Z,0
2023-01-26T01:41:27.724Z,0
2023-01-26T01:42:27.962Z,0
2023-01-26T01:43:28.910Z,0
2023-01-26T01:44:29.142Z,0
2023-01-26T01:45:30.070Z,0
2023-01-26T01:46:30.762Z,0
2023-01-26T01:47:30.444Z,0
2023-01-26T01:48:31.727Z,0
2023-01-26T01:49:32.668Z,0
2023-01-26T01:50:32.624Z,0
2023-01-26T01:51:33.262Z,0
2023-01-26T01:52:34.280Z,0
2023-01-26T01:53:34.787Z,0
2023-01-26T01:54:35.021Z,0
2023-01-26T01:55:35.260Z,0
2023-01-26T01:56:36.617Z,0
2023-01-26T01:57:36.527Z,0
2023-01-26T01:58:37.150Z,0
2023-01-26T01:59:38.355Z,0
2023-01-26T02:00:38.346Z,0
2023-01-26T02:01:38.834Z,0
2023-01-26T02:02:39.211Z,0
2023-01-26T02:03:40.240Z,0
2023-01-26T02:04:41.169Z,0
2023-01-26T02:05:42.127Z,0
2023-01-26T02:06:42.848Z,0
2023-01-26T02:07:43.778Z,0
2023-01-26T02:08:45.286Z,0
2023-01-26T02:09:45.510Z,0
2023-01-26T02:10:46.014Z,0
2023-01-26T02:11:46.248Z,0
2023-01-26T02:12:46.434Z,0
2023-01-26T02:13:47.089Z,0
2023-01-26T02:14:47.711Z,0
2023-01-26T02:15:48.924Z,0
2023-01-26T02:16:49.192Z,0
2023-01-26T02:17:49.381Z,0
2023-01-26T02:18:49.661Z,0
2023-01-26T02:19:50.607Z,0
2023-01-26T02:20:50.827Z,0
2023-01-26T02:21:51.123Z,0
2023-01-26T02:22:51.311Z,0
2023-01-26T02:23:51.539Z,0
2023-01-26T02:24:51.755Z,0
2023-01-26T02:25:52.264Z,0
2023-01-26T02:26:52.556Z,0
2023-01-26T02:27:52.759Z,0
2023-01-26T02:28:53.391Z,0
2023-01-26T02:29:54.652Z,0
2023-01-26T02:30:56.270Z,0
2023-01-26T02:31:56.800Z,0
2023-01-26T02:32:57.117Z,0
2023-01-26T02:33:58.434Z,0
2023-01-26T02:34:58.074Z,0
2023-01-26T02:35:59.294Z,0
2023-01-26T02:37:00.347Z,0
2023-01-26T02:38:00.703Z,0
2023-01-26T02:39:01.901Z,0
2023-01-26T02:40:02.430Z,0
2023-01-26T02:41:02.541Z,0
2023-01-26T02:42:02.187Z,0
2023-01-26T02:43:02.826Z,0
2023-01-26T02:44:04.312Z,0
2023-01-26T02:45:03.935Z,0
2023-01-26T02:46:05.140Z,0
2023-01-26T02:47:06.066Z,0
2023-01-26T02:48:05.685Z,0
2023-01-26T02:49:06.975Z,0
2023-01-26T02:50:07.001Z,0
2023-01-26T02:51:08.212Z,0
2023-01-26T02:52:08.427Z,0
2023-01-26T02:53:08.653Z,0
2023-01-26T02:54:08.861Z,0
2023-01-26T02:55:09.106Z,0
2023-01-26T02:56:09.320Z,0
2023-01-26T02:57:10.377Z,0
2023-01-26T02:58:11.609Z,0
2023-01-26T02:59:11.249Z,0
2023-01-26T03:00:12.203Z,0
2023-01-26T03:01:12.712Z,0
2023-01-26T03:02:13.531Z,0
2023-01-26T03:03:13.175Z,0
2023-01-26T03:04:14.743Z,0
2023-01-26T03:05:14.709Z,0
2023-01-26T03:06:14.608Z,0
2023-01-26T03:07:15.940Z,0
2023-01-26T03:08:16.895Z,0
2023-01-26T03:09:17.103Z,0
2023-01-26T03:10:17.814Z,0
2023-01-26T03:11:18.351Z,0
2023-01-26T03:12:18.302Z,0
2023-01-26T03:13:18.513Z,0
2023-01-26T03:14:18.709Z,0
2023-01-26T03:15:18.633Z,0
2023-01-26T03:16:20.112Z,0
2023-01-26T03:17:20.592Z,0
2023-01-26T03:18:21.791Z,0
2023-01-26T03:19:22.344Z,0
2023-01-26T03:20:23.433Z,0
2023-01-26T03:21:23.662Z,0
2023-01-26T03:22:24.149Z,0
2023-01-26T03:23:24.363Z,0
2023-01-26T03:24:25.001Z,0
2023-01-26T03:25:24.672Z,0
2023-01-26T03:26:25.882Z,0
2023-01-26T03:27:26.656Z,0
2023-01-26T03:28:27.573Z,0
2023-01-26T03:29:28.510Z,0
2023-01-26T03:30:29.959Z,0
2023-01-26T03:31:30.388Z,0
2023-01-26T03:32:30.396Z,0
2023-01-26T03:33:31.318Z,0
2023-01-26T03:34:31.580Z,0
2023-01-26T03:35:31.485Z,0
2023-01-26T03:36:32.102Z,0
2023-01-26T03:37:33.161Z,0
2023-01-26T03:38:33.367Z,0
2023-01-26T03:39:33.294Z,0
2023-01-26T03:40:33.534Z,0
2023-01-26T03:41:33.783Z,0
2023-01-26T03:42:33.409Z,0
2023-01-26T03:43:34.722Z,0
2023-01-26T03:44:35.635Z,0
2023-01-26T03:45:36.571Z,0
2023-01-26T03:46:37.280Z,0
2023-01-26T03:47:37.289Z,0
2023-01-26T03:48:37.952Z,0
2023-01-26T03:49:39.520Z,0
2023-01-26T03:50:39.184Z,0
2023-01-26T03:51:40.678Z,0
2023-01-26T03:52:40.898Z,0
2023-01-26T03:53:40.830Z,0
2023-01-26T03:54:41.046Z,0
2023-01-26T03:55:40.980Z,0
2023-01-26T03:56:42.205Z,0
2023-01-26T03:57:42.826Z,0
2023-01-26T03:58:42.751Z,0
2023-01-26T03:59:43.974Z,0
2023-01-26T04:00:44.069Z,0
2023-01-26T04:01:44.793Z,0
2023-01-26T04:02:45.322Z,0
2023-01-26T04:03:45.240Z,0
2023-01-26T04:04:46.233Z,0
2023-01-26T04:05:46.171Z,0
2023-01-26T04:06:46.815Z,0
2023-01-26T04:07:48.130Z,0
2023-01-26T04:08:48.370Z,0
2023-01-26T04:09:48.578Z,0
2023-01-26T04:10:48.782Z,0
2023-01-26T04:11:48.999Z,0
2023-01-26T04:12:49.395Z,0
2023-01-26T04:13:50.617Z,0
2023-01-26T04:15:06.692Z,0
2023-01-26T04:15:51.910Z,0
2023-01-26T04:16:52.795Z,0
2023-01-26T04:17:53.142Z,0
2023-01-26T04:18:54.113Z,0
2023-01-26T04:19:55.389Z,0
2023-01-26T04:20:55.317Z,0
2023-01-26T04:21:56.228Z,0
2023-01-26T04:22:57.477Z,0
2023-01-26T04:23:57.613Z,0
2023-01-26T04:24:58.614Z,0
2023-01-26T04:25:59.120Z,0
2023-01-26T04:26:59.414Z,0
2023-01-26T04:27:59.411Z,0
2023-01-26T04:29:00.305Z,0
2023-01-26T04:30:00.421Z,0
2023-01-26T04:31:02.140Z,0
2023-01-26T04:32:01.697Z,0
2023-01-26T04:33:02.978Z,0
2023-01-26T04:34:02.877Z,0
2023-01-26T04:35:04.132Z,0
2023-01-26T04:36:04.322Z,0
2023-01-26T04:37:05.293Z,0
2023-01-26T04:38:06.318Z,0
2023-01-26T04:39:06.530Z,0
2023-01-26T04:40:07.206Z,0
2023-01-26T04:41:08.172Z,0
2023-01-26T04:42:09.094Z,0
2023-01-26T04:43:10.012Z,0
2023-01-26T04:44:09.969Z,0
2023-01-26T04:45:11.502Z,0
2023-01-26T04:46:11.985Z,0
2023-01-26T04:47:12.478Z,0
2023-01-26T04:48:13.214Z,0
2023-01-26T04:49:13.443Z,0
2023-01-26T04:50:14.925Z,0
2023-01-26T04:51:14.877Z,0
2023-01-26T04:52:16.062Z,0
2023-01-26T04:53:15.995Z,0
2023-01-26T04:54:17.521Z,0
2023-01-26T04:55:17.189Z,0
2023-01-26T04:56:17.579Z,0
2023-01-26T04:57:18.805Z,0
2023-01-26T04:58:20.889Z,0
2023-01-26T04:59:19.834Z,0
2023-01-26T05:00:22.003Z,0
2023-01-26T05:01:21.807Z,0
2023-01-26T05:02:21.711Z,0
2023-01-26T05:03:22.915Z,0
2023-01-26T05:04:22.754Z,0
2023-01-26T05:05:23.322Z,0
2023-01-26T05:06:22.953Z,0
2023-01-26T05:07:24.162Z,0
2023-01-26T05:08:24.768Z,0
2023-01-26T05:09:24.995Z,0
2023-01-26T05:10:27.500Z,0
2023-01-26T05:11:25.456Z,0
2023-01-26T05:12:26.701Z,0
2023-01-26T05:13:26.351Z,0
2023-01-26T05:14:27.270Z,0
2023-01-26T05:15:28.477Z,0
2023-01-26T05:16:29.871Z,0
2023-01-26T05:17:29.406Z,0
2023-01-26T05:18:30.715Z,0
2023-01-26T05:19:30.653Z,0
2023-01-26T05:20:31.289Z,0
2023-01-26T05:21:31.499Z,0
2023-01-26T05:22:32.046Z,0
2023-01-26T05:23:31.996Z,0
2023-01-26T05:24:33.099Z,0
2023-01-26T05:25:33.336Z,0
2023-01-26T05:26:33.282Z,0
2023-01-26T05:27:34.522Z,0
2023-01-26T05:28:35.285Z,0
2023-01-26T05:29:36.476Z,0
2023-01-26T05:30:37.272Z,0
2023-01-26T05:31:38.104Z,0
2023-01-26T05:32:39.331Z,0
2023-01-26T05:33:39.544Z,0
2023-01-26T05:34:39.471Z,0
2023-01-26T05:35:41.010Z,0
2023-01-26T05:36:40.637Z,0
2023-01-26T05:37:41.852Z,0
2023-01-26T05:38:41.875Z,0
2023-01-26T05:39:42.793Z,0
2023-01-26T05:40:43.769Z,0
2023-01-26T05:41:45.013Z,0
2023-01-26T05:42:44.973Z,0
2023-01-26T05:43:45.894Z,0
2023-01-26T05:44:47.124Z,0
2023-01-26T05:45:47.819Z,0
2023-01-26T05:46:47.777Z,0
2023-01-26T05:47:48.435Z,0
2023-01-26T05:48:49.867Z,0
2023-01-26T05:49:49.535Z,0
2023-01-26T05:50:50.809Z,0
2023-01-26T05:51:50.739Z,0
2023-01-26T05:52:51.098Z,0
2023-01-26T05:53:52.742Z,0
2023-01-26T05:54:53.387Z,0
2023-01-26T05:55:54.306Z,0
2023-01-26T05:56:54.278Z,0
2023-01-26T05:57:55.549Z,0
2023-01-26T05:58:56.313Z,0
2023-01-26T05:59:56.543Z,0
2023-01-26T06:00:56.441Z,0
2023-01-26T06:01:57.253Z,0
2023-01-26T06:02:59.770Z,0
2023-01-26T06:03:59.046Z,0
2023-01-26T06:04:58.697Z,0
2023-01-26T06:05:59.973Z,0
2023-01-26T06:07:00.189Z,0
2023-01-26T06:08:01.391Z,0
2023-01-26T06:09:01.707Z,0
2023-01-26T06:10:01.662Z,0
2023-01-26T06:11:02.012Z,0
2023-01-26T06:12:02.734Z,0
2023-01-26T06:13:04.243Z,0
2023-01-26T06:14:04.440Z,0
2023-01-26T06:15:04.445Z,0
2023-01-26T06:16:05.369Z,0
2023-01-26T06:17:06.851Z,0
2023-01-26T06:18:06.783Z,0
2023-01-26T06:19:07.804Z,0
2023-01-26T06:20:07.766Z,0
2023-01-26T06:21:09.316Z,0
2023-01-26T06:22:09.012Z,0
2023-01-26T06:23:10.228Z,0
2023-01-26T06:24:11.023Z,0
2023-01-26T06:25:11.294Z,0
2023-01-26T06:26:11.320Z,0
2023-01-26T06:27:12.587Z,0
2023-01-26T06:28:13.100Z,0
2023-01-26T06:29:13.719Z,0
2023-01-26T06:30:13.829Z,0
2023-01-26T06:31:13.909Z,0
2023-01-26T06:32:14.436Z,0
2023-01-26T06:33:16.684Z,0
2023-01-26T06:34:14.312Z,0
2023-01-26T06:35:15.530Z,0
2023-01-26T06:36:15.890Z,0
2023-01-26T06:37:16.101Z,0
2023-01-26T06:38:16.029Z,0
2023-01-26T06:39:17.383Z,0
2023-01-26T06:40:18.700Z,0
2023-01-26T06:41:18.075Z,0
2023-01-26T06:42:18.739Z,0
2023-01-26T06:43:19.974Z,0
2023-01-26T06:44:19.595Z,0
2023-01-26T06:45:21.495Z,0
2023-01-26T06:46:22.147Z,0
2023-01-26T06:47:22.603Z,0
2023-01-26T06:48:22.234Z,0
2023-01-26T06:49:23.266Z,0
2023-01-26T06:50:25.008Z,0
2023-01-26T06:51:25.301Z,0
2023-01-26T06:52:25.786Z,0
2023-01-26T06:53:25.694Z,0
2023-01-26T06:54:26.610Z,0
2023-01-26T06:55:27.276Z,0
2023-01-26T06:56:28.169Z,0
2023-01-26T06:57:28.625Z,0
2023-01-26T06:58:29.563Z,0
2023-01-26T06:59:31.140Z,0
2023-01-26T07:00:30.803Z,0
2023-01-26T07:01:32.815Z,0
2023-01-26T07:02:32.787Z,0
2023-01-26T07:03:33.715Z,0
2023-01-26T07:04:34.413Z,0
2023-01-26T07:05:35.364Z,0
2023-01-26T07:06:36.354Z,0
2023-01-26T07:07:36.270Z,0
2023-01-26T07:08:37.479Z,0
2023-01-26T07:09:36.893Z,0
2023-01-26T07:10:38.830Z,0
2023-01-26T07:11:39.449Z,0
2023-01-26T07:12:39.413Z,0
2023-01-26T07:13:39.676Z,0
2023-01-26T07:14:39.875Z,0
2023-01-26T07:15:40.370Z,0
2023-01-26T07:16:42.966Z,0
2023-01-26T07:17:40.043Z,0
2023-01-26T07:18:41.273Z,0
2023-01-26T07:19:41.163Z,0
2023-01-26T07:20:42.471Z,0
2023-01-26T07:21:43.048Z,5.63
2023-01-26T07:22:43.544Z,5.63
2023-01-26T07:23:45.920Z,0
2023-01-26T07:24:44.745Z,5.63
2023-01-26T07:25:45.115Z,5.63
2023-01-26T07:26:46.034Z,5.63
2023-01-26T07:27:47.269Z,5.63
2023-01-26T07:28:51.470Z,5.63
2023-01-26T07:29:48.239Z,5.63
2023-01-26T07:30:49.367Z,5.63
2023-01-26T07:31:49.890Z,5.63
2023-01-26T07:32:49.307Z,5.63
2023-01-26T07:33:49.924Z,5.63
2023-01-26T07:34:50.841Z,5.63
2023-01-26T07:35:51.522Z,5.63
2023-01-26T07:36:52.788Z,5.63
2023-01-26T07:37:53.278Z,5.63
2023-01-26T07:38:53.488Z,5.63
2023-01-26T07:39:54.063Z,5.63
2023-01-26T07:40:53.704Z,5.63
2023-01-26T07:41:54.633Z,5.63
2023-01-26T07:42:54.290Z,5.63
2023-01-26T07:43:56.138Z,5.63
2023-01-26T07:44:56.400Z,5.63
2023-01-26T07:45:56.965Z,5.63
2023-01-26T07:46:57.304Z,5.63
2023-01-26T07:47:57.536Z,5.63
2023-01-26T07:48:58.221Z,5.63
2023-01-26T07:49:58.949Z,5.63
2023-01-26T07:51:00.531Z,5.63
2023-01-26T07:52:02.363Z,5.63
2023-01-26T07:53:01.692Z,5.63
2023-01-26T07:54:01.649Z,5.63
2023-01-26T07:55:02.852Z,5.63
2023-01-26T07:56:03.067Z,11.25
2023-01-26T07:57:03.143Z,11.25
2023-01-26T07:58:03.850Z,11.25
2023-01-26T07:59:06.626Z,11.25
2023-01-26T08:00:05.981Z,11.25
2023-01-26T08:01:06.412Z,11.25
2023-01-26T08:02:08.017Z,11.25
2023-01-26T08:03:08.872Z,11.25
2023-01-26T08:04:08.851Z,11.25
2023-01-26T08:05:09.829Z,11.25
2023-01-26T08:06:12.457Z,11.25
2023-01-26T08:07:12.614Z,11.25
2023-01-26T08:08:12.151Z,11.25
2023-01-26T08:09:12.377Z,11.25
2023-01-26T08:10:12.761Z,11.25
2023-01-26T08:11:13.245Z,11.25
2023-01-26T08:12:13.473Z,11.25
2023-01-26T08:13:14.560Z,11.25
2023-01-26T08:14:13.271Z,11.25
2023-01-26T08:15:13.639Z,11.25
2023-01-26T08:16:14.985Z,11.25
2023-01-26T08:17:15.484Z,11.25
2023-01-26T08:18:15.703Z,11.25
2023-01-26T08:19:15.945Z,11.25
2023-01-26T08:20:16.608Z,16.88
2023-01-26T08:21:17.229Z,16.88
2023-01-26T08:22:17.811Z,16.88
2023-01-26T08:23:18.002Z,16.88
2023-01-26T08:24:19.177Z,16.88
2023-01-26T08:25:19.135Z,16.88
2023-01-26T08:26:20.506Z,16.88
2023-01-26T08:27:20.772Z,16.88
2023-01-26T08:28:21.367Z,16.88
2023-01-26T08:29:21.833Z,16.88
2023-01-26T08:30:23.371Z,22.5
2023-01-26T08:31:23.250Z,22.5
2023-01-26T08:32:23.222Z,22.5
2023-01-26T08:33:24.757Z,22.5
2023-01-26T08:34:24.691Z,22.5
2023-01-26T08:35:25.897Z,22.5
2023-01-26T08:36:28.198Z,22.5
2023-01-26T08:37:26.777Z,28.13
2023-01-26T08:38:26.693Z,28.13
2023-01-26T08:39:27.074Z,28.13
2023-01-26T08:40:28.283Z,22.5
2023-01-26T08:41:28.784Z,22.5
2023-01-26T08:42:28.763Z,22.5
2023-01-26T08:43:29.491Z,28.13
2023-01-26T08:44:31.026Z,28.13
2023-01-26T08:45:31.282Z,33.75
2023-01-26T08:46:31.911Z,33.75
2023-01-26T08:47:32.593Z,33.75
2023-01-26T08:48:33.853Z,33.75
2023-01-26T08:49:33.499Z,33.75
2023-01-26T08:50:34.545Z,33.75
2023-01-26T08:51:35.184Z,33.75
2023-01-26T08:52:36.483Z,39.38
2023-01-26T08:53:36.712Z,39.38
2023-01-26T08:54:37.199Z,39.38
2023-01-26T08:55:37.524Z,39.38
2023-01-26T08:56:37.718Z,39.38
2023-01-26T08:57:38.232Z,39.38
2023-01-26T08:58:37.901Z,39.38
2023-01-26T08:59:39.127Z,33.75
2023-01-26T09:00:40.124Z,33.75
2023-01-26T09:01:41.565Z,28.13
2023-01-26T09:02:42.530Z,28.13
2023-01-26T09:03:42.813Z,28.13
2023-01-26T09:04:42.774Z,28.13
2023-01-26T09:05:43.003Z,28.13
2023-01-26T09:06:42.920Z,28.13
2023-01-26T09:07:44.216Z,33.75
2023-01-26T09:08:44.426Z,33.75
2023-01-26T09:09:44.365Z,39.38
2023-01-26T09:10:44.598Z,39.38
2023-01-26T09:11:45.253Z,39.38
2023-01-26T09:12:46.764Z,39.38
2023-01-26T09:13:46.729Z,39.38
2023-01-26T09:14:46.964Z,39.38
2023-01-26T09:15:47.462Z,39.38
2023-01-26T09:16:47.580Z,45
2023-01-26T09:17:47.219Z,45
2023-01-26T09:18:48.868Z,45
2023-01-26T09:19:50.267Z,45
2023-01-26T09:20:49.053Z,45
2023-01-26T09:21:49.778Z,45
2023-01-26T09:22:51.092Z,45
2023-01-26T09:23:51.659Z,50.63
2023-01-26T09:24:51.917Z,50.63
2023-01-26T09:25:52.602Z,50.63
2023-01-26T09:26:53.817Z,50.63
2023-01-26T09:27:54.332Z,45
2023-01-26T09:28:54.285Z,39.38
2023-01-26T09:29:54.921Z,39.38
2023-01-26T09:30:56.356Z,39.38
2023-01-26T09:31:57.480Z,39.38
2023-01-26T09:32:56.803Z,39.38
2023-01-26T09:33:58.856Z,39.38
2023-01-26T09:35:00.600Z,39.38
2023-01-26T09:35:59.105Z,39.38
2023-01-26T09:36:59.641Z,39.38
2023-01-26T09:38:00.303Z,39.38
2023-01-26T09:39:00.476Z,45
2023-01-26T09:40:00.727Z,50.63
2023-01-26T09:41:00.760Z,50.63
2023-01-26T09:42:02.426Z,56.25
2023-01-26T09:43:02.675Z,50.63
2023-01-26T09:44:03.208Z,45
2023-01-26T09:45:03.604Z,45
2023-01-26T09:46:03.685Z,45
2023-01-26T09:47:04.344Z,50.63
2023-01-26T09:48:05.570Z,56.25
2023-01-26T09:49:06.117Z,56.25
2023-01-26T09:50:11.597Z,56.25
2023-01-26T09:51:07.251Z,61.88
2023-01-26T09:52:11.413Z,56.25
2023-01-26T09:53:08.814Z,56.25
2023-01-26T09:54:08.952Z,56.25
2023-01-26T09:55:12.182Z,56.25
2023-01-26T09:56:10.380Z,56.25
2023-01-26T09:57:11.068Z,56.25
2023-01-26T09:58:12.320Z,56.25
2023-01-26T09:59:13.595Z,56.25
2023-01-26T10:00:14.158Z,56.25
2023-01-26T10:01:15.002Z,56.25
2023-01-26T10:02:15.085Z,56.25
2023-01-26T10:03:16.386Z,61.88
2023-01-26T10:04:16.896Z,56.25
2023-01-26T10:05:17.582Z,50.63
2023-01-26T10:06:17.803Z,50.63
2023-01-26T10:07:18.300Z,50.63
2023-01-26T10:08:18.614Z,50.63
2023-01-26T10:09:18.876Z,56.25
2023-01-26T10:10:18.790Z,61.88
2023-01-26T10:11:19.830Z,56.25
2023-01-26T10:12:20.821Z,56.25
2023-01-26T10:13:22.037Z,56.25
2023-01-26T10:14:22.276Z,56.25
2023-01-26T10:15:23.476Z,61.88
2023-01-26T10:16:23.180Z,56.25
2023-01-26T10:17:23.379Z,56.25
2023-01-26T10:18:23.608Z,56.25
2023-01-26T10:19:23.873Z,56.25
2023-01-26T10:20:23.983Z,61.88
2023-01-26T10:21:24.624Z,61.88
2023-01-26T10:22:24.661Z,61.88
2023-01-26T10:23:26.006Z,61.88
2023-01-26T10:24:26.250Z,61.88
2023-01-26T10:25:30.534Z,67.5
2023-01-26T10:26:26.952Z,67.5
2023-01-26T10:27:28.513Z,67.5
2023-01-26T10:28:29.022Z,67.5
2023-01-26T10:29:29.545Z,67.5
2023-01-26T10:30:31.064Z,67.5
2023-01-26T10:31:31.548Z,67.5
2023-01-26T10:32:30.860Z,67.5
2023-01-26T10:33:33.716Z,67.5
2023-01-26T10:34:32.403Z,67.5
2023-01-26T10:35:32.961Z,67.5
2023-01-26T10:36:33.168Z,73.13
2023-01-26T10:37:34.443Z,73.13
2023-01-26T10:38:34.734Z,73.13
2023-01-26T10:39:34.438Z,73.13
2023-01-26T10:40:36.047Z,73.13
2023-01-26T10:41:36.611Z,73.13
2023-01-26T10:42:36.961Z,73.13
2023-01-26T10:43:37.174Z,73.13
2023-01-26T10:44:38.409Z,73.13
2023-01-26T10:45:38.456Z,73.13
2023-01-26T10:46:39.726Z,73.13
2023-01-26T10:47:39.672Z,73.13
2023-01-26T10:48:40.627Z,73.13
2023-01-26T10:49:40.611Z,73.13
2023-01-26T10:50:41.261Z,73.13
2023-01-26T10:51:42.611Z,73.13
2023-01-26T10:52:42.620Z,73.13
2023-01-26T10:53:43.918Z,73.13
2023-01-26T10:54:44.149Z,73.13
2023-01-26T10:55:44.700Z,73.13
2023-01-26T10:56:44.640Z,67.5
2023-01-26T10:57:46.157Z,67.5
2023-01-26T10:58:46.359Z,67.5
2023-01-26T10:59:47.594Z,67.5
2023-01-26T11:00:47.541Z,67.5
2023-01-26T11:01:48.816Z,67.5
2023-01-26T11:02:49.295Z,67.5
2023-01-26T11:03:49.231Z,73.13
2023-01-26T11:04:51.438Z,73.13
2023-01-26T11:05:50.621Z,73.13
2023-01-26T11:06:52.154Z,67.5
2023-01-26T11:07:52.662Z,67.5
2023-01-26T11:08:53.248Z,73.13
2023-01-26T11:09:53.750Z,73.13
2023-01-26T11:10:54.133Z,67.5
2023-01-26T11:11:54.346Z,67.5
2023-01-26T11:12:55.703Z,67.5
2023-01-26T11:13:56.418Z,67.5
2023-01-26T11:14:57.116Z,67.5
2023-01-26T11:15:58.562Z,67.5
2023-01-26T11:16:58.522Z,67.5
2023-01-26T11:18:00.021Z,67.5
2023-01-26T11:19:00.222Z,67.5
2023-01-26T11:20:00.467Z,67.5
2023-01-26T11:21:00.410Z,67.5
2023-01-26T11:22:01.418Z,67.5
2023-01-26T11:23:01.065Z,73.13
2023-01-26T11:24:02.863Z,73.13
2023-01-26T11:25:03.090Z,73.13
2023-01-26T11:26:04.303Z,78.75
2023-01-26T11:27:04.222Z,78.75
2023-01-26T11:28:05.463Z,78.75
2023-01-26T11:29:06.034Z,78.75
2023-01-26T11:30:06.341Z,84.38
2023-01-26T11:31:06.548Z,78.75
2023-01-26T11:32:07.333Z,78.75
2023-01-26T11:33:07.554Z,78.75
2023-01-26T11:34:08.225Z,84.38
2023-01-26T11:35:09.690Z,84.38
2023-01-26T11:36:09.757Z,78.75
2023-01-26T11:37:10.971Z,78.75
2023-01-26T11:38:11.221Z,78.75
2023-01-26T11:39:11.800Z,78.75
2023-01-26T11:40:12.327Z,78.75
2023-01-26T11:41:12.554Z,78.75
2023-01-26T11:42:12.944Z,78.75
2023-01-26T11:43:13.882Z,78.75
2023-01-26T11:44:15.098Z,78.75
2023-01-26T11:45:15.881Z,78.75
2023-01-26T11:46:16.465Z,78.75
2023-01-26T11:47:16.987Z,78.75
2023-01-26T11:48:17.145Z,84.38
2023-01-26T11:49:17.124Z,84.38
2023-01-26T11:50:18.391Z,84.38
2023-01-26T11:51:22.468Z,84.38
2023-01-26T11:52:19.496Z,84.38
2023-01-26T11:53:20.123Z,84.38
2023-01-26T11:54:21.704Z,78.75
2023-01-26T11:55:22.141Z,78.75
2023-01-26T11:56:22.065Z,78.75
2023-01-26T11:57:22.992Z,73.13
2023-01-26T11:58:22.932Z,73.13
2023-01-26T11:59:23.837Z,73.13
2023-01-26T12:00:42.268Z,73.13
2023-01-26T12:01:25.563Z,73.13
2023-01-26T12:02:27.696Z,73.13
2023-01-26T12:03:26.393Z,73.13
2023-01-26T12:04:26.632Z,73.13
2023-01-26T12:05:28.279Z,73.13
2023-01-26T12:06:28.495Z,73.13
2023-01-26T12:07:28.132Z,78.75
2023-01-26T12:08:29.354Z,73.13
2023-01-26T12:09:29.708Z,73.13
2023-01-26T12:10:30.923Z,73.13
2023-01-26T12:11:30.284Z,73.13
2023-01-26T12:12:31.592Z,73.13
2023-01-26T12:13:32.822Z,73.13
2023-01-26T12:14:33.055Z,73.13
2023-01-26T12:15:33.556Z,73.13
2023-01-26T12:16:33.676Z,73.13
2023-01-26T12:17:35.470Z,73.13
2023-01-26T12:19:15.577Z,73.13
2023-01-26T12:19:35.843Z,73.13
2023-01-26T12:20:38.245Z,73.13
2023-01-26T12:21:35.923Z,73.13
2023-01-26T12:22:39.664Z,73.13
2023-01-26T12:23:37.581Z,73.13
2023-01-26T12:25:31.887Z,73.13
2023-01-26T12:25:50.308Z,73.13
2023-01-26T12:26:49.868Z,73.13
2023-01-26T12:27:50.169Z,73.13
2023-01-26T12:28:50.380Z,67.5
2023-01-26T12:29:51.302Z,67.5
2023-01-26T12:30:52.391Z,67.5
2023-01-26T12:31:52.482Z,61.88
2023-01-26T12:32:52.573Z,61.88
2023-01-26T12:33:53.806Z,61.88
2023-01-26T12:34:53.755Z,67.5
2023-01-26T12:35:54.394Z,67.5
2023-01-26T12:36:55.372Z,67.5
2023-01-26T12:38:03.044Z,67.5
2023-01-26T12:38:56.689Z,67.5
2023-01-26T12:39:57.300Z,67.5
2023-01-26T12:40:58.858Z,61.88
2023-01-26T12:41:58.806Z,61.88
2023-01-26T12:42:59.604Z,61.88
2023-01-26T12:43:59.831Z,61.88
2023-01-26T12:45:00.061Z,61.88
2023-01-26T12:46:00.883Z,61.88
2023-01-26T12:47:01.249Z,61.88
2023-01-26T12:48:00.916Z,61.88
2023-01-26T12:49:02.132Z,56.25
2023-01-26T12:50:02.740Z,56.25
2023-01-26T12:51:02.485Z,56.25
2023-01-26T12:52:03.427Z,56.25
2023-01-26T12:53:04.647Z,56.25
2023-01-26T12:54:05.243Z,56.25
2023-01-26T12:55:05.243Z,56.25
2023-01-26T12:56:05.865Z,56.25
2023-01-26T12:57:05.814Z,56.25
2023-01-26T12:58:06.835Z,56.25
2023-01-26T12:59:08.435Z,56.25
2023-01-26T13:00:08.274Z,56.25
2023-01-26T13:01:10.105Z,56.25
2023-01-26T13:02:10.439Z,56.25
2023-01-26T13:03:10.336Z,56.25
2023-01-26T13:04:11.037Z,61.88
2023-01-26T13:05:11.718Z,61.88
2023-01-26T13:06:12.400Z,61.88
2023-01-26T13:07:14.115Z,61.88
2023-01-26T13:08:14.343Z,61.88
2023-01-26T13:09:14.555Z,56.25
2023-01-26T13:10:16.261Z,56.25
2023-01-26T13:11:16.587Z,56.25
2023-01-26T13:12:16.979Z,56.25
2023-01-26T13:13:17.604Z,56.25
2023-01-26T13:14:18.187Z,56.25
2023-01-26T13:15:18.506Z,56.25
2023-01-26T13:16:19.790Z,56.25
2023-01-26T13:17:20.056Z,56.25
2023-01-26T13:18:20.282Z,56.25
2023-01-26T13:19:21.057Z,50.63
2023-01-26T13:20:23.441Z,45
2023-01-26T13:21:21.579Z,45
2023-01-26T13:22:22.804Z,45
2023-01-26T13:23:22.829Z,45
2023-01-26T13:24:24.366Z,45
2023-01-26T13:25:24.344Z,50.63
2023-01-26T13:26:26.977Z,50.63
2023-01-26T13:27:25.893Z,56.25
2023-01-26T13:28:26.450Z,56.25
2023-01-26T13:29:26.362Z,56.25
2023-01-26T13:30:28.244Z,56.25
2023-01-26T13:31:28.253Z,61.88
2023-01-26T13:32:29.544Z,61.88
2023-01-26T13:33:29.872Z,61.88
2023-01-26T13:34:30.898Z,61.88
2023-01-26T13:35:31.419Z,61.88
2023-01-26T13:36:31.941Z,61.88
2023-01-26T13:37:32.170Z,61.88
2023-01-26T13:38:34.286Z,61.88
2023-01-26T13:39:32.519Z,61.88
2023-01-26T13:40:36.222Z,61.88
2023-01-26T13:41:34.557Z,61.88
2023-01-26T13:42:34.508Z,61.88
2023-01-26T13:43:44.645Z,61.88
2023-01-26T13:44:44.616Z,61.88
2023-01-26T13:45:45.537Z,61.88
2023-01-26T13:46:47.048Z,56.25
2023-01-26T13:47:47.467Z,56.25
2023-01-26T13:48:49.738Z,56.25
2023-01-26T13:49:47.978Z,56.25
2023-01-26T13:50:48.191Z,56.25
2023-01-26T13:51:48.425Z,61.88
2023-01-26T13:52:48.697Z,61.88
2023-01-26T13:53:49.059Z,61.88
2023-01-26T13:54:49.274Z,61.88
2023-01-26T13:55:49.509Z,61.88
2023-01-26T13:56:50.190Z,61.88
2023-01-26T13:57:50.401Z,56.25
2023-01-26T13:58:50.611Z,56.25
2023-01-26T13:59:50.532Z,56.25
2023-01-26T14:00:51.178Z,56.25
2023-01-26T14:01:52.463Z,56.25